Flight Track Log - Related Links

Times and Time Zones

All times are in EST time to prevent confusion due to time zone crossing. See the JZA8297 flight status page for this flight to view local times or setup timezone preferences in your user account.

Time Position Orientation Groundspeed Altitude Reporting Facility
EST Latitude Longitude Course Direction KTS MPH feet Rate Location/Type
Fri 07:54:21 PM 49.8833 -97.2333 308° West 20 23 800  Level Winnipeg Center
Fri 07:55:21 PM 49.9000 -97.2500 327° Northwest 160 184 1,500 1,800 Climbing Winnipeg Center
Fri 07:56:21 PM 49.9333 -97.3000 316° Northwest 180 207 4,400 2,400 Climbing Winnipeg Center
Fri 07:57:21 PM 49.9500 -97.3833 287° West 250 288 6,300 2,350 Climbing Winnipeg Center
Fri 07:58:21 PM 49.9833 -97.4833 297° West 250 288 9,100 2,350 Climbing Winnipeg Center
Fri 07:59:00 PM 50.0612 -97.9556 287° West  Level FlightAware Approximate
Fri 07:59:21 PM 50.0000 -97.6167 281° West 270 311 11,000  Level Winnipeg Center
Fri 08:00:00 PM 50.0980 -98.0961 308° West  Level FlightAware Approximate
Fri 08:00:21 PM 50.0167 -97.7167 285° West 300 345 12,600  Level Winnipeg Center
Fri 08:01:21 PM 50.0500 -97.8500 291° West 310 357 14,300 1,700 Climbing Winnipeg Center
Fri 08:02:21 PM 50.0667 -97.9833 281° West 310 357 16,000 1,450 Climbing Winnipeg Center
Fri 08:03:21 PM 50.0833 -98.1167 281° West 310 357 17,200 1,200 Climbing Winnipeg Center
Fri 08:04:21 PM 50.1167 -98.2500 291° West 320 368 18,400 1,200 Climbing Winnipeg Center
Fri 08:05:21 PM 50.1333 -98.3833 281° West 320 368 19,600 1,300 Climbing Winnipeg Center
Fri 08:06:21 PM 50.1667 -98.5000 294° West 310 357 21,000 1,300 Climbing Winnipeg Center
Fri 08:07:21 PM 50.2000 -98.6333 291° West 300 345 22,200 1,100 Climbing Winnipeg Center
Fri 08:08:21 PM 50.2167 -98.7500 283° West 300 345 23,200 1,000 Climbing Winnipeg Center
Fri 08:09:21 PM 50.2500 -98.8833 291° West 300 345 24,200 950 Climbing Winnipeg Center
Fri 08:10:21 PM 50.2667 -99.0000 283° West 300 345 25,100 900 Climbing Winnipeg Center
Fri 08:11:21 PM 50.3000 -99.1333 291° West 300 345 26,000 800 Climbing Winnipeg Center
Fri 08:12:21 PM 50.3167 -99.2500 283° West 300 345 26,700 700 Climbing Winnipeg Center
Fri 08:13:21 PM 50.3333 -99.3833 281° West 300 345 27,400 650 Climbing Winnipeg Center
Fri 08:14:21 PM 50.3500 -99.5167 281° West 300 345 28,000 300 Climbing Winnipeg Center
Fri 08:15:21 PM 50.3833 -99.6500 291° West 310 357 28,000  Level Winnipeg Center
Fri 08:16:21 PM 50.4167 -99.7833 291° West 320 368 28,000  Level Winnipeg Center
Fri 08:17:21 PM 50.4500 -99.9167 291° West 330 380 28,000  Level Winnipeg Center
Fri 08:18:21 PM 50.4833 -100.0500 291° West 340 391 28,000  Level Winnipeg Center
Fri 08:19:21 PM 50.5167 -100.1833 292° West 340 391 28,000  Level Winnipeg Center
Fri 08:20:21 PM 50.5667 -100.3167 301° West 350 403 28,000  Level Winnipeg Center
Fri 08:21:21 PM 50.6167 -100.4500 301° West 350 403 28,000  Level Winnipeg Center
Fri 08:22:21 PM 50.6500 -100.6000 289° West 350 403 28,000  Level Winnipeg Center
Fri 08:23:21 PM 50.6833 -100.7500 289° West 360 414 28,000  Level Winnipeg Center
Fri 08:24:21 PM 50.7333 -100.8833 301° West 360 414 28,000  Level Winnipeg Center
Fri 08:25:21 PM 50.7667 -101.0333 289° West 360 414 28,000  Level Winnipeg Center
Fri 08:26:21 PM 50.8000 -101.1833 289° West 360 414 28,000  Level Winnipeg Center
Fri 08:27:21 PM 50.8500 -101.3167 301° West 360 414 28,000  Level Winnipeg Center
Fri 08:28:21 PM 50.9000 -101.4833 295° West 360 414 28,000  Level Winnipeg Center
Fri 08:29:21 PM 50.9167 -101.6167 281° West 370 426 28,000  Level Winnipeg Center
Fri 08:30:21 PM 50.9667 -101.7833 296° West 360 414 28,000  Level Winnipeg Center
Fri 08:31:21 PM 51.0167 -101.9167 301° West 360 414 28,000  Level Winnipeg Center
Fri 08:32:21 PM 51.0333 -102.0500 281° West 370 426 28,000  Level Winnipeg Center
Fri 08:33:21 PM 51.0833 -102.2167 296° West 360 414 28,000  Level Winnipeg Center
Fri 08:34:21 PM 51.1167 -102.3833 288° West 370 426 28,000  Level Winnipeg Center
Fri 08:35:21 PM 51.1500 -102.5167 292° West 370 426 28,000  Level Winnipeg Center
Fri 08:36:21 PM 51.1833 -102.6833 288° West 370 426 28,000  Level Winnipeg Center
Fri 08:37:21 PM 51.2167 -102.8500 288° West 370 426 28,000  Level Winnipeg Center
Fri 08:38:21 PM 51.2500 -102.9833 292° West 370 426 28,000  Level Winnipeg Center
Fri 08:39:21 PM 51.2667 -103.1500 279° West 380 437 28,000  Level Winnipeg Center
Fri 08:40:21 PM 51.3167 -103.3167 296° West 380 437 28,000  Level Winnipeg Center
Fri 08:41:21 PM 51.3500 -103.4500 292° West 380 437 28,000  Level Winnipeg Center
Fri 08:42:21 PM 51.3833 -103.6500 285° West 380 437 28,000  Level Winnipeg Center
Fri 08:43:21 PM 51.4167 -103.7833 292° West 380 437 28,000  Level Winnipeg Center
Fri 08:44:21 PM 51.4667 -103.9500 296° West 380 437 28,000  Level Winnipeg Center
Fri 08:45:21 PM 51.4833 -104.1167 279° West 370 426 28,000  Level Winnipeg Center
Fri 08:46:21 PM 51.5167 -104.2667 290° West 380 437 28,000  Level Winnipeg Center
Fri 08:47:21 PM 51.5500 -104.4333 288° West 380 437 28,000  Level Winnipeg Center
Fri 08:48:21 PM 51.5833 -104.6000 288° West 380 437 28,000  Level Winnipeg Center
Fri 08:49:21 PM 51.6167 -104.7667 288° West 380 437 28,000  Level Winnipeg Center
Fri 08:50:21 PM 51.6500 -104.9333 288° West 390 449 28,000  Level Winnipeg Center
Fri 08:51:21 PM 51.6667 -105.1000 279° West 390 449 28,000  Level Winnipeg Center
Fri 08:52:21 PM 51.7167 -105.2667 296° West 390 449 28,000 -450 Level Winnipeg Center
Fri 08:53:21 PM 51.7500 -105.4333 288° West 390 449 27,100 -2,250 Descending Winnipeg Center
Fri 08:54:21 PM 51.7833 -105.6167 286° West 380 437 23,500 -3,400 Descending Winnipeg Center
Fri 08:55:21 PM 51.8167 -105.7500 292° West 370 426 20,300 -2,950 Descending Winnipeg Center
Fri 08:56:21 PM 51.8333 -105.9000 280° West 350 403 17,600 -3,150 Descending Winnipeg Center
Fri 08:57:21 PM 51.8500 -106.0333 281° West 330 380 14,000 -3,450 Descending Winnipeg Center
Fri 08:58:21 PM 51.8833 -106.1667 292° West 300 345 10,700 -2,800 Descending Winnipeg Center
Fri 08:59:21 PM 51.9000 -106.2833 283° West 250 288 8,400 -2,050 Descending Winnipeg Center
Fri 09:00:21 PM 51.9333 -106.3833 298° West 230 265 6,600 -1,650 Descending Winnipeg Center
Fri 09:01:21 PM 51.9333 -106.4833 270° West 210 242 5,100 -1,400 Descending Winnipeg Center
Fri 09:02:21 PM 51.9667 -106.5500 309° West 170 196 3,800 -950 Descending Winnipeg Center
Fri 09:03:21 PM 52.0000 -106.5833 328° Northwest 160 184 3,200 -300 Descending Winnipeg Center
Fri 09:04:21 PM 52.0500 -106.6167 338° Northwest 140 161 3,200 -50 Level Winnipeg Center
Fri 09:05:21 PM 52.0833 -106.6500 328° Northwest 120 138 3,100  Descending Winnipeg Center
Fri 09:06:21 PM 52.0833 -106.6833 270° West 120 138 3,200 -400 Climbing Winnipeg Center
Fri 09:07:21 PM 52.1167 -106.7167 328° Northwest 120 138 2,300 -750 Descending Winnipeg Center
Fri 09:08:21 PM 52.1500 -106.7333 343° North 100 115 1,700 -600 Descending Winnipeg Center

Login

Don't have an account? Register now (free) for customized features, flight alerts, and more!